Terminal Aerodrome Forecast
Issued by NWS Norman, OK

Home | Current Version | Previous Version | Text Only | Print | Product List | Glossary On
Versions: 1 2 3 4 5 6 7 8 9 10 11 12 13 14 15 16 17 18 19 20 21 22 23 24
000
FTUS44 KOUN 210520
TAFSPS
TAF
KSPS 210520Z 2106/2206 13015KT P6SM VCSH OVC060
      TEMPO 2106/2109 3SM TSRA BR OVC025CB
     FM210900 12014KT 3SM TSRA BR OVC025CB
     FM211300 10012KT 4SM -TSRA BR OVC012CB
     FM212200 05012KT 6SM -RA BR OVC008=

USA.gov is the U.S. government's official web portal to all federal, state and local government web resources and services.